Miquan, China
Current Conditions -  °F | °C
As of 6:30 AM on Monday 26 Jan 2015 (Local Time) from ZWWW Reporting Station
Light Snow Light Snow  
Wind Chill:   Ceiling: 4000
Heat Index:   Visibility: 3mi
Dew Point:   Wind: 2mph
Humidity: 85%   Direction: 340°NNW
Pressure: 30.53"   Gusts: NA
Location:  43.97°N, 87.7°E
Report Text: ZWWW 252230Z 34001MPS 5000 -SN BR BKN040 M13/M15 Q1034 NOSIG
Loading
Personal Weather Stations






























Interactive Weather Map New forecast layout! Learn more

10-Day Weather Forecast

Advertisements
Track Severe Weather on mobile